createdAt,value
2018-04-01T00:01:30.115Z,63.13
2018-04-01T00:03:58.110Z,51.33
2018-04-01T00:06:26.188Z,59.10
2018-04-01T00:08:55.199Z,50.03
2018-04-01T00:11:23.259Z,55.37
2018-04-01T00:13:52.242Z,60.83
2018-04-01T00:16:21.246Z,55.80
2018-04-01T00:18:49.572Z,48.10
2018-04-01T00:21:18.119Z,50.60
2018-04-01T00:23:46.328Z,51.43
2018-04-01T00:26:14.247Z,63.10
2018-04-01T00:28:42.627Z,62.23
2018-04-01T00:31:10.217Z,55.00
2018-04-01T00:33:38.590Z,56.97
2018-04-01T00:36:06.166Z,64.17
2018-04-01T00:38:33.869Z,58.67
2018-04-01T00:41:02.213Z,69.67
2018-04-01T00:43:30.045Z,67.77
2018-04-01T00:45:58.816Z,59.73
2018-04-01T00:48:27.049Z,63.33
2018-04-01T00:50:55.884Z,63.40
2018-04-01T00:53:23.873Z,58.77
2018-04-01T00:55:52.776Z,72.17
2018-04-01T00:58:20.815Z,63.70
2018-04-01T01:00:52.902Z,59.80
2018-04-01T01:03:23.115Z,61.03
2018-04-01T01:05:51.520Z,57.97
2018-04-01T01:08:26.547Z,67.07
2018-04-01T01:10:54.575Z,65.00
2018-04-01T01:13:22.621Z,70.77
2018-04-01T01:16:00.728Z,69.43
2018-04-01T01:18:29.428Z,69.27
2018-04-01T01:21:01.390Z,70.43
2018-04-01T01:23:41.906Z,70.57
2018-04-01T01:26:09.614Z,56.77
2018-04-01T01:28:57.265Z,49.07
2018-04-01T01:31:25.619Z,60.93
2018-04-01T01:33:53.725Z,54.97
2018-04-01T01:36:28.215Z,63.30
2018-04-01T01:38:57.058Z,54.43
2018-04-01T01:41:34.594Z,58.53
2018-04-01T01:44:15.028Z,61.00
2018-04-01T01:46:42.791Z,67.83
2018-04-01T01:49:10.393Z,55.20
2018-04-01T01:51:41.765Z,68.53
2018-04-01T01:54:09.408Z,67.77
2018-04-01T01:56:37.825Z,62.93
2018-04-01T01:59:05.426Z,65.50
2018-04-01T02:01:33.133Z,65.63
2018-04-01T02:04:00.966Z,67.63
2018-04-01T02:06:29.055Z,76.37
2018-04-01T02:08:57.659Z,75.40
2018-04-01T02:11:25.965Z,80.83
2018-04-01T02:13:54.387Z,82.60
2018-04-01T02:16:23.095Z,82.50
2018-04-01T02:18:52.164Z,76.43
2018-04-01T02:21:20.561Z,80.40
2018-04-01T02:23:48.947Z,84.30
2018-04-01T02:26:17.259Z,84.87
2018-04-01T02:28:45.257Z,81.87
2018-04-01T02:31:13.068Z,80.23
2018-04-01T02:33:40.664Z,84.93
2018-04-01T02:36:08.291Z,83.53
2018-04-01T02:38:35.892Z,87.87
2018-04-01T02:41:03.464Z,81.20
2018-04-01T02:43:31.183Z,80.13
2018-04-01T02:45:59.169Z,81.03
2018-04-01T02:48:27.321Z,94.13
2018-04-01T02:50:55.390Z,87.40
2018-04-01T02:53:24.444Z,78.53
2018-04-01T02:55:53.827Z,78.40
2018-04-01T02:58:21.780Z,81.97
2018-04-01T03:00:50.912Z,80.97
2018-04-01T03:03:19.995Z,79.17
2018-04-01T03:05:48.525Z,80.20
2018-04-01T03:08:16.911Z,74.57
2018-04-01T03:10:44.924Z,75.70
2018-04-01T03:13:13.479Z,73.23
2018-04-01T03:15:41.079Z,83.40
2018-04-01T03:18:08.686Z,62.20
2018-04-01T03:20:36.294Z,69.87
2018-04-01T03:23:03.891Z,71.17
2018-04-01T03:25:31.553Z,70.63
2018-04-01T03:28:00.487Z,54.20
2018-04-01T03:30:28.726Z,61.77
2018-04-01T03:32:56.925Z,57.00
2018-04-01T03:35:24.836Z,51.47
2018-04-01T03:37:52.955Z,47.20
2018-04-01T03:40:21.895Z,42.10
2018-04-01T03:42:50.260Z,43.30
2018-04-01T03:45:18.624Z,45.60
2018-04-01T03:47:46.951Z,42.93
2018-04-01T03:50:14.908Z,37.60
2018-04-01T03:52:42.675Z,35.17
2018-04-01T03:55:10.304Z,30.77
2018-04-01T03:57:37.883Z,50.80
2018-04-01T04:00:05.453Z,38.97
2018-04-01T04:02:33.087Z,35.53
2018-04-01T04:05:01.495Z,36.40
2018-04-01T04:07:29.417Z,39.37
2018-04-01T04:09:58.255Z,32.33
2018-04-01T04:12:27.079Z,31.37
2018-04-01T04:14:55.352Z,30.43
2018-04-01T04:17:23.383Z,27.63
2018-04-01T04:19:52.253Z,23.70
2018-04-01T04:22:20.624Z,28.50
2018-04-01T04:24:49.497Z,26.00
2018-04-01T04:27:18.193Z,34.03
2018-04-01T04:29:46.433Z,28.03
2018-04-01T04:32:14.174Z,31.17
2018-04-01T04:34:42.777Z,27.90
2018-04-01T04:37:10.443Z,27.87
2018-04-01T04:39:38.183Z,27.50
2018-04-01T04:42:05.760Z,26.10
2018-04-01T04:44:33.368Z,24.10
2018-04-01T04:47:01.127Z,28.90
2018-04-01T04:49:29.197Z,30.73
2018-04-01T04:51:57.129Z,22.93
2018-04-01T04:54:25.566Z,23.97
2018-04-01T04:56:53.850Z,29.50
2018-04-01T04:59:22.089Z,24.87
2018-04-01T05:01:50.631Z,19.83
2018-04-01T05:04:19.674Z,21.33
2018-04-01T05:06:48.106Z,25.57
2018-04-01T05:09:17.489Z,25.43
2018-04-01T05:11:45.890Z,23.83
2018-04-01T05:14:13.764Z,23.17
2018-04-01T05:16:41.374Z,18.90
2018-04-01T05:19:09.752Z,30.60
2018-04-01T05:21:37.363Z,24.13
2018-04-01T05:24:05.009Z,24.07
2018-04-01T05:26:32.629Z,28.37
2018-04-01T05:29:00.256Z,25.57
2018-04-01T05:31:28.172Z,27.80
2018-04-01T05:33:56.298Z,29.13
2018-04-01T05:36:25.170Z,24.27
2018-04-01T05:38:54.166Z,24.33
2018-04-01T05:41:23.313Z,24.00
2018-04-01T05:43:51.664Z,30.83
2018-04-01T05:46:20.591Z,26.63
2018-04-01T05:48:49.062Z,34.97
2018-04-01T05:51:18.778Z,30.50
2018-04-01T05:53:47.006Z,27.47
2018-04-01T05:56:14.725Z,30.53
2018-04-01T05:58:42.527Z,28.63
2018-04-01T06:01:10.156Z,27.57
2018-04-01T06:03:37.747Z,23.83
2018-04-01T06:06:05.406Z,27.63
2018-04-01T06:08:33.105Z,30.93
2018-04-01T06:11:01.556Z,27.97
2018-04-01T06:13:29.449Z,33.70
2018-04-01T06:15:57.632Z,27.07
2018-04-01T06:18:25.824Z,24.33
2018-04-01T06:20:53.974Z,29.93
2018-04-01T06:23:22.111Z,32.50
2018-04-01T06:25:51.307Z,26.10
2018-04-01T06:28:19.979Z,33.93
2018-04-01T06:30:48.809Z,30.27
2018-04-01T06:33:17.484Z,30.10
2018-04-01T06:35:47.324Z,31.30
2018-04-01T06:38:16.376Z,25.93
2018-04-01T06:40:45.130Z,29.50
2018-04-01T06:43:13.620Z,33.70
2018-04-01T06:45:41.225Z,35.77
2018-04-01T06:48:08.812Z,31.43
2018-04-01T06:50:37.164Z,28.97
2018-04-01T06:53:04.743Z,28.33
2018-04-01T06:55:32.483Z,29.10
2018-04-01T06:58:00.350Z,30.63
2018-04-01T07:00:29.007Z,26.93
2018-04-01T07:02:58.964Z,27.00
2018-04-01T07:05:27.526Z,26.53
2018-04-01T07:07:55.578Z,32.30
2018-04-01T07:10:23.813Z,28.50
2018-04-01T07:12:51.894Z,30.30
2018-04-01T07:15:20.041Z,28.60
2018-04-01T07:17:48.135Z,24.13
2018-04-01T07:20:16.281Z,13.03
2018-04-01T07:22:44.131Z,7.47
2018-04-01T07:25:12.577Z,7.03
2018-04-01T07:27:40.198Z,9.77
2018-04-01T07:30:07.858Z,7.90
2018-04-01T07:32:35.465Z,8.80
2018-04-01T07:35:03.117Z,31.20
2018-04-01T07:37:31.022Z,10.23
2018-04-01T07:39:58.941Z,4.67
2018-04-01T07:42:28.111Z,7.23
2018-04-01T07:44:56.921Z,4.17
2018-04-01T07:47:26.035Z,3.83
2018-04-01T07:49:54.766Z,77.43
2018-04-01T07:52:22.752Z,2.97
2018-04-01T07:54:51.179Z,2.50
2018-04-01T07:57:19.181Z,3.30
2018-04-01T07:59:48.631Z,3.57
2018-04-01T08:02:16.878Z,3.63
2018-04-01T08:04:44.563Z,3.17
2018-04-01T08:07:12.698Z,2.80
2018-04-01T08:09:40.347Z,3.30
2018-04-01T08:12:07.960Z,4.03
2018-04-01T08:14:35.637Z,5.37
2018-04-01T08:17:03.235Z,3.40
2018-04-01T08:19:30.999Z,4.67
2018-04-01T08:21:59.992Z,2.60
2018-04-01T08:24:30.333Z,3.73
2018-04-01T08:26:58.945Z,4.57
2018-04-01T08:29:27.614Z,2.47
2018-04-01T08:31:55.858Z,3.23
2018-04-01T08:34:26.239Z,3.30
2018-04-01T08:36:54.396Z,2.60
2018-04-01T08:39:22.473Z,4.30
2018-04-01T08:41:50.565Z,4.40
2018-04-01T08:44:19.000Z,3.10
2018-04-01T08:46:47.611Z,3.77
2018-04-01T08:49:15.977Z,3.47
2018-04-01T08:51:43.983Z,3.27
2018-04-01T08:54:11.609Z,3.57
2018-04-01T08:56:39.302Z,3.10
2018-04-01T08:59:07.143Z,3.10
2018-04-01T09:01:34.759Z,2.70
2018-04-01T09:04:02.486Z,2.77
2018-04-01T09:06:31.043Z,2.60
2018-04-01T09:08:59.265Z,2.10
2018-04-01T09:11:28.762Z,2.27
2018-04-01T09:13:57.030Z,2.40
2018-04-01T09:16:27.447Z,1.80
2018-04-01T09:18:57.051Z,1.10
2018-04-01T09:21:26.408Z,1.47
2018-04-01T09:23:54.958Z,1.10
2018-04-01T09:26:27.914Z,1.40
2018-04-01T09:28:57.256Z,2.53
2018-04-01T09:31:25.537Z,1.50
2018-04-01T09:33:53.519Z,1.53
2018-04-01T09:36:21.397Z,1.00
2018-04-01T09:38:49.799Z,1.20
2018-04-01T09:41:18.236Z,0.93
2018-04-01T09:43:46.300Z,1.27
2018-04-01T09:46:14.200Z,0.87
2018-04-01T09:48:41.821Z,1.20
2018-04-01T09:51:09.761Z,75.97
2018-04-01T09:53:37.386Z,1.00
2018-04-01T09:56:04.992Z,0.80
2018-04-01T09:58:33.356Z,0.80
2018-04-01T10:01:01.505Z,0.90
2018-04-01T10:03:29.609Z,0.90
2018-04-01T10:05:58.565Z,0.97
2018-04-01T10:08:27.701Z,1.00
2018-04-01T10:10:57.172Z,1.10
2018-04-01T10:13:27.379Z,1.17
2018-04-01T10:16:02.039Z,1.67
2018-04-01T10:18:32.373Z,1.30
2018-04-01T10:21:00.695Z,1.40
2018-04-01T10:23:29.143Z,1.37
2018-04-01T10:25:58.570Z,1.17
2018-04-01T10:28:27.960Z,1.23
2018-04-01T10:30:56.567Z,1.00
2018-04-01T10:33:25.997Z,1.57
2018-04-01T10:35:55.193Z,1.40
2018-04-01T10:38:23.920Z,0.97
2018-04-01T10:40:52.739Z,1.07
2018-04-01T10:43:21.879Z,1.17
2018-04-01T10:45:51.038Z,1.20
2018-04-01T10:48:20.160Z,1.10
2018-04-01T10:50:49.148Z,1.77
2018-04-01T10:53:18.466Z,1.60
2018-04-01T10:55:47.904Z,1.37
2018-04-01T10:58:16.088Z,1.80
2018-04-01T11:00:43.800Z,2.17
2018-04-01T11:03:21.005Z,4.10
2018-04-01T11:05:49.110Z,3.57
2018-04-01T11:08:18.293Z,4.30
2018-04-01T11:10:47.560Z,3.50
2018-04-01T11:13:15.380Z,7.00
2018-04-01T11:15:43.241Z,4.67
2018-04-01T11:18:11.566Z,8.73
2018-04-01T11:20:39.168Z,80.33
2018-04-01T11:23:06.764Z,9.53
2018-04-01T11:25:34.346Z,11.10
2018-04-01T11:28:02.684Z,24.53
2018-04-01T11:30:30.331Z,10.77
2018-04-01T11:32:58.072Z,11.97
2018-04-01T11:35:25.908Z,18.43
2018-04-01T11:37:53.770Z,18.63
2018-04-01T11:40:22.462Z,17.90
2018-04-01T11:42:50.446Z,18.00
2018-04-01T11:45:18.482Z,18.20
2018-04-01T11:47:46.846Z,12.20
2018-04-01T11:50:14.587Z,14.13
2018-04-01T11:52:42.614Z,12.63
2018-04-01T11:55:10.183Z,28.10
2018-04-01T11:57:38.547Z,12.20
2018-04-01T12:00:06.120Z,8.97
2018-04-01T12:02:33.729Z,13.90
2018-04-01T12:05:01.378Z,12.60
2018-04-01T12:07:29.156Z,8.90
2018-04-01T12:09:57.381Z,14.83
2018-04-01T12:12:26.405Z,14.50
2018-04-01T12:14:54.350Z,13.60
2018-04-01T12:17:22.216Z,11.23
2018-04-01T12:19:51.396Z,14.70
2018-04-01T12:22:20.321Z,12.37
2018-04-01T12:24:48.903Z,16.43
2018-04-01T12:27:18.240Z,16.07
2018-04-01T12:29:46.380Z,11.50
2018-04-01T12:32:14.068Z,11.70
2018-04-01T12:34:41.848Z,13.17
2018-04-01T12:37:10.183Z,10.47
2018-04-01T12:39:37.803Z,12.13
2018-04-01T12:42:05.383Z,10.40
2018-04-01T12:44:34.627Z,10.37
2018-04-01T12:47:02.211Z,11.70
2018-04-01T12:49:30.517Z,10.73
2018-04-01T12:51:59.253Z,10.57
2018-04-01T12:54:27.865Z,10.20
2018-04-01T12:56:56.493Z,12.40
2018-04-01T12:59:24.583Z,13.80
2018-04-01T13:01:53.385Z,17.30
2018-04-01T13:04:26.214Z,21.93
2018-04-01T13:06:54.285Z,16.07
2018-04-01T13:09:22.413Z,18.80
2018-04-01T13:11:51.666Z,16.57
2018-04-01T13:14:20.932Z,18.70
2018-04-01T13:16:49.374Z,19.73
2018-04-01T13:19:17.537Z,23.27
2018-04-01T13:21:46.905Z,23.10
2018-04-01T13:24:14.633Z,21.67
2018-04-01T13:26:43.143Z,26.20
2018-04-01T13:29:10.754Z,25.83
2018-04-01T13:31:38.317Z,32.40
2018-04-01T13:34:05.995Z,24.87
2018-04-01T13:36:33.615Z,34.10
2018-04-01T13:39:01.220Z,28.27
2018-04-01T13:41:28.887Z,30.87
2018-04-01T13:43:56.903Z,27.43
2018-04-01T13:46:26.644Z,28.57
2018-04-01T13:48:54.664Z,29.23
2018-04-01T13:51:23.421Z,30.40
2018-04-01T13:53:51.563Z,31.00
2018-04-01T13:56:20.166Z,27.80
2018-04-01T13:58:50.741Z,26.00
2018-04-01T14:01:20.599Z,29.33
2018-04-01T14:03:49.837Z,33.83
2018-04-01T14:06:19.367Z,34.10
2018-04-01T14:08:50.351Z,31.27
2018-04-01T14:11:20.641Z,29.20
2018-04-01T14:13:49.929Z,34.73
2018-04-01T14:16:20.768Z,33.13
2018-04-01T14:18:49.936Z,29.00
2018-04-01T14:21:19.100Z,32.40
2018-04-01T14:23:48.298Z,31.63
2018-04-01T14:26:16.935Z,26.03
2018-04-01T14:28:44.648Z,37.57
2018-04-01T14:31:12.500Z,27.60
2018-04-01T14:33:40.226Z,30.33
2018-04-01T14:36:07.826Z,39.33
2018-04-01T14:38:35.431Z,27.00
2018-04-01T14:41:03.048Z,23.83
2018-04-01T14:43:31.474Z,26.50
2018-04-01T14:45:59.295Z,21.17
2018-04-01T14:48:27.312Z,23.10
2018-04-01T14:50:55.992Z,22.57
2018-04-01T14:53:23.930Z,20.20
2018-04-01T14:55:51.967Z,15.97
2018-04-01T14:58:20.492Z,18.37
2018-04-01T15:00:49.990Z,22.10
2018-04-01T15:03:18.202Z,18.90
2018-04-01T15:05:47.529Z,18.70
2018-04-01T15:08:15.385Z,21.97
2018-04-01T15:10:43.881Z,17.87
2018-04-01T15:13:11.506Z,24.70
2018-04-01T15:15:39.197Z,24.70
2018-04-01T15:18:06.801Z,21.43
2018-04-01T15:20:35.232Z,25.37
2018-04-01T15:23:02.895Z,23.43
2018-04-01T15:25:30.494Z,22.90
2018-04-01T15:27:58.495Z,24.40
2018-04-01T15:30:26.498Z,24.33
2018-04-01T15:32:54.500Z,22.93
2018-04-01T15:35:22.593Z,22.40
2018-04-01T15:37:50.525Z,20.53
2018-04-01T15:40:20.315Z,24.90
2018-04-01T15:42:48.605Z,25.77
2018-04-01T15:45:18.067Z,29.43
2018-04-01T15:47:46.781Z,24.03
2018-04-01T15:50:15.772Z,28.13
2018-04-01T15:52:43.523Z,27.93
2018-04-01T15:55:11.095Z,32.30
2018-04-01T15:57:38.733Z,34.93
2018-04-01T16:00:07.631Z,38.83
2018-04-01T16:02:36.634Z,41.60
2018-04-01T16:05:05.483Z,41.57
2018-04-01T16:07:34.064Z,39.20
2018-04-01T16:10:01.712Z,35.17
2018-04-01T16:12:29.276Z,41.33
2018-04-01T16:14:57.013Z,42.00
2018-04-01T16:17:24.756Z,48.00
2018-04-01T16:19:52.650Z,43.37
2018-04-01T16:22:20.672Z,44.37
2018-04-01T16:24:49.643Z,43.70
2018-04-01T16:27:18.764Z,49.30
2018-04-01T16:29:46.936Z,57.03
2018-04-01T16:32:14.670Z,47.03
2018-04-01T16:34:42.852Z,45.40
2018-04-01T16:37:11.246Z,45.50
2018-04-01T16:39:39.596Z,48.80
2018-04-01T16:42:07.167Z,54.03
2018-04-01T16:44:34.725Z,57.37
2018-04-01T16:47:02.296Z,54.20
2018-04-01T16:49:29.887Z,49.90
2018-04-01T16:51:58.866Z,55.00
2018-04-01T16:54:27.567Z,51.70
2018-04-01T16:56:55.551Z,58.80
2018-04-01T16:59:23.472Z,49.73
2018-04-01T17:01:52.128Z,54.97
2018-04-01T17:04:21.152Z,55.17
2018-04-01T17:06:50.057Z,53.27
2018-04-01T17:09:18.393Z,56.80
2018-04-01T17:11:46.496Z,91.53
2018-04-01T17:14:14.862Z,55.93
2018-04-01T17:16:42.619Z,56.07
2018-04-01T17:19:10.230Z,49.53
2018-04-01T17:21:38.636Z,54.27
2018-04-01T17:24:06.220Z,51.60
2018-04-01T17:26:33.801Z,64.70
2018-04-01T17:29:01.392Z,50.67
2018-04-01T17:31:29.870Z,53.23
2018-04-01T17:33:57.822Z,52.00
2018-04-01T17:36:25.720Z,60.77
2018-04-01T17:38:53.570Z,62.83
2018-04-01T17:41:21.368Z,61.67
2018-04-01T17:43:49.441Z,53.90
2018-04-01T17:46:17.462Z,56.20
2018-04-01T17:48:45.484Z,57.70
2018-04-01T17:51:13.195Z,54.80
2018-04-01T17:53:41.511Z,62.77
2018-04-01T17:56:09.123Z,55.87
2018-04-01T17:58:36.688Z,50.20
2018-04-01T18:01:04.371Z,51.20
2018-04-01T18:03:32.046Z,52.53
2018-04-01T18:05:59.623Z,47.30
2018-04-01T18:08:28.192Z,47.73
2018-04-01T18:10:55.985Z,44.00
2018-04-01T18:13:24.165Z,43.37
2018-04-01T18:15:52.297Z,44.57
2018-04-01T18:18:20.218Z,40.57
2018-04-01T18:20:48.902Z,41.17
2018-04-01T18:23:16.766Z,40.20
2018-04-01T18:25:44.550Z,39.83
2018-04-01T18:28:12.233Z,36.53
2018-04-01T18:30:39.797Z,40.67
2018-04-01T18:33:07.375Z,39.97
2018-04-01T18:35:34.939Z,46.77
2018-04-01T18:38:02.563Z,53.53
2018-04-01T18:40:30.168Z,75.20
2018-04-01T18:42:59.037Z,83.70
2018-04-01T18:45:27.624Z,79.70
2018-04-01T18:47:55.515Z,93.13
2018-04-01T18:50:24.081Z,78.37
2018-04-01T18:52:51.818Z,81.43
2018-04-01T18:55:24.762Z,74.00
2018-04-01T18:57:53.481Z,105.13
2018-04-01T19:00:21.292Z,102.87
2018-04-01T19:02:49.833Z,106.43
2018-04-01T19:05:17.700Z,79.93
2018-04-01T19:07:45.709Z,82.83
2018-04-01T19:10:13.526Z,77.60
2018-04-01T19:12:41.927Z,74.57
2018-04-01T19:15:10.367Z,77.93
2018-04-01T19:17:38.516Z,85.53
2018-04-01T19:20:07.739Z,79.27
2018-04-01T19:22:36.043Z,88.77
2018-04-01T19:25:04.491Z,93.10
2018-04-01T19:27:32.810Z,110.97
2018-04-01T19:30:01.175Z,113.47
2018-04-01T19:32:29.631Z,105.00
2018-04-01T19:34:58.292Z,110.97
2018-04-01T19:37:27.581Z,110.50
2018-04-01T19:39:56.319Z,106.87
2018-04-01T19:42:24.884Z,102.47
2018-04-01T19:44:53.294Z,93.60
2018-04-01T19:47:21.946Z,104.33
2018-04-01T19:49:54.558Z,95.73
2018-04-01T19:52:23.173Z,92.20
2018-04-01T19:54:51.780Z,96.43
2018-04-01T19:57:20.327Z,79.73
2018-04-01T19:59:49.194Z,80.50
2018-04-01T20:02:17.778Z,81.50
2018-04-01T20:04:47.754Z,91.97
2018-04-01T20:07:16.340Z,88.80
2018-04-01T20:09:45.736Z,94.13
2018-04-01T20:12:14.091Z,88.20
2018-04-01T20:14:42.565Z,86.10
2018-04-01T20:17:10.867Z,81.07
2018-04-01T20:19:39.360Z,83.77
2018-04-01T20:22:07.688Z,77.43
2018-04-01T20:24:36.084Z,79.23
2018-04-01T20:27:04.439Z,98.47
2018-04-01T20:29:32.861Z,93.27
2018-04-01T20:32:01.278Z,94.37
2018-04-01T20:34:29.619Z,82.13
2018-04-01T20:36:58.017Z,83.33
2018-04-01T20:39:27.028Z,86.60
2018-04-01T20:41:55.727Z,84.30
2018-04-01T20:44:24.461Z,99.30
2018-04-01T20:46:53.230Z,95.77
2018-04-01T20:49:22.692Z,155.53
2018-04-01T20:51:51.370Z,98.77
2018-04-01T20:54:20.139Z,99.30
2018-04-01T20:56:49.646Z,90.97
2018-04-01T20:59:18.280Z,96.67
2018-04-01T21:01:47.809Z,93.93
2018-04-01T21:04:16.595Z,101.27
2018-04-01T21:06:45.142Z,98.77
2018-04-01T21:09:13.686Z,83.70
2018-04-01T21:11:42.064Z,93.27
2018-04-01T21:14:11.144Z,91.97
2018-04-01T21:16:39.479Z,83.93
2018-04-01T21:19:07.819Z,75.90
2018-04-01T21:21:36.984Z,79.50
2018-04-01T21:24:05.291Z,76.27
2018-04-01T21:26:33.755Z,77.67
2018-04-01T21:29:02.064Z,78.73
2018-04-01T21:31:30.371Z,84.47
2018-04-01T21:33:58.738Z,92.47
2018-04-01T21:36:27.240Z,87.03
2018-04-01T21:38:55.742Z,93.33
2018-04-01T21:41:24.456Z,95.47
2018-04-01T21:43:53.276Z,105.40
2018-04-01T21:46:22.273Z,94.73
2018-04-01T21:48:51.392Z,97.17
2018-04-01T21:51:20.690Z,100.97
2018-04-01T21:53:49.709Z,99.73
2018-04-01T21:56:18.783Z,97.63
2018-04-01T21:58:47.404Z,100.10
2018-04-01T22:01:17.378Z,103.53
2018-04-01T22:03:46.336Z,98.77
2018-04-01T22:06:15.992Z,91.00
2018-04-01T22:08:44.602Z,91.77
2018-04-01T22:11:13.808Z,91.50
2018-04-01T22:13:42.471Z,89.27
2018-04-01T22:16:11.666Z,91.50
2018-04-01T22:18:39.971Z,107.10
2018-04-01T22:21:09.035Z,100.37
2018-04-01T22:23:37.336Z,93.63
2018-04-01T22:26:05.695Z,95.60
2018-04-01T22:28:34.059Z,101.47
2018-04-01T22:31:03.164Z,103.03
2018-04-01T22:33:32.247Z,101.40
2018-04-01T22:36:00.670Z,101.63
2018-04-01T22:38:29.331Z,97.37
2018-04-01T22:40:57.944Z,103.30
2018-04-01T22:43:27.238Z,90.60
2018-04-01T22:45:56.750Z,99.40
2018-04-01T22:48:25.539Z,97.07
2018-04-01T22:50:54.194Z,100.77
2018-04-01T22:53:23.900Z,102.63
2018-04-01T22:55:52.744Z,102.03
2018-04-01T22:58:22.207Z,96.87
2018-04-01T23:00:51.195Z,99.70
2018-04-01T23:03:19.845Z,104.23
2018-04-01T23:05:49.672Z,85.97
2018-04-01T23:08:19.690Z,90.13
2018-04-01T23:10:48.543Z,103.40
2018-04-01T23:13:17.449Z,97.37
2018-04-01T23:15:46.354Z,105.73
2018-04-01T23:18:14.954Z,90.43
2018-04-01T23:20:43.561Z,95.50
2018-04-01T23:23:11.923Z,102.97
2018-04-01T23:25:40.252Z,111.40
2018-04-01T23:28:08.580Z,122.10
2018-04-01T23:30:37.722Z,116.20
2018-04-01T23:33:06.853Z,112.20
2018-04-01T23:35:35.183Z,119.50
2018-04-01T23:38:04.311Z,121.67
2018-04-01T23:40:33.428Z,116.23
2018-04-01T23:43:01.764Z,105.27
2018-04-01T23:45:30.192Z,107.37
2018-04-01T23:47:58.950Z,110.47
2018-04-01T23:50:27.624Z,114.80
2018-04-01T23:52:57.078Z,120.33
2018-04-01T23:55:25.642Z,111.30
2018-04-01T23:57:54.378Z,108.03
